64517 station(s) have been heard in the last 24 hours.

<< 29 30 31 32 33 34 35 >>
  Name/Id Latest heard Comment/Other Map
Symbol 147.360-R 1788476762 147.360MHz T136.5 Net Every Monday 6:30pm Map
Symbol IRLP-3680 1788476762 147525sPL-885C EXP0082 Map
Symbol DL2SEK 1788476762 Map
Symbol DB6TR 1788476762 Map
Symbol KD9LCM-B 1788476762 70cm Voice (D-Star) 438.80000MHz +0.0000MHz Map
Symbol N8JEP-4 1788476761 PLXDigi U=13.6V. Map
Symbol G8DHE-2 1788476761 GP6 Map
Symbol DL1AG 1788476761 SharkRF openSPOT3 Map
Symbol XE3JAC-10 1788476761 Indy Open Igate 144.390 Mhz T=27.5C H=34% P=790hPa V=11.64 Map
Symbol OK0BEA-1 1788476761 WX3in1Plus2.0 U=19.1V,T=20.1C,OK0BEA 439.2125 MHz Map
Symbol 145.225RV 1788476761 Ramnicu Valcea local call | 145.225 Mhz Map
Symbol K4AWC 1788476761 SharkRF openSPOT2 Map
Symbol F1ZAR-4 1788476761 >Relais du RClub F5KLJ Jonzac Map
Symbol VA3EMC 1788476761 147.33MHz, T000, +0.6MHz (YSF + WIRES-X) Map
Symbol IZ2UQC-N 1788476761 440 MMDVM Voice 433.45000MHz +0.0000MHz, IZ2UQC_Pi-Star Map
Symbol KR4AYK-2 1788476761 Albany, GA Digi/iGate Map
Symbol YD7VME-2 1788476761 APRS GATE-BERAU 144.390 Mhz Map
Symbol F1JIO E 1788476761 70cm Voice (D-Star) 438.95000MHz -7.6000MHz Map
Symbol CE3ESB-2 1788476761 Digirepiter LoRa APRS_ Alt 163msnm Batt=4.25V Map
Symbol KL4QZ-10 1788476761 YOU'VE REACHED THE DEAN,TEXAS APRS DIGIPEATER Map
Symbol WSLA411 1788476761 eMB64 Map
Symbol KC3LMP-9 1788476761 Map
Symbol TRG1 1788476761 869.525MHz Meshtastic LongFast Map
Symbol KE0QIB 1788476761 WX3in1Plus2.0 13.6V Map
Symbol Z32CPU 1788476761 Weather in Skopje => 18 C - Wind => 1.03 m/s ESE - Humidity => 59 % - Pressure => 1019 hPa Map
Symbol IRLP-3481 1788476761 147440s100C EXP0082 Map
Symbol K8RAR-D 1788476761 70cm MMDVM Voice (DMR) 434.60000MHz +0.0000MHz, APRS for DMRGateway Map
Symbol N2EDX-10 1788476761 CVWA Tx/Rx I-Gate Map
Symbol V85EX-1 1788476761 Brunei Ham LoRa APRS Community Map
Symbol VK3AS-2 1788476761 Radio ID 5053055 via VK3AS Map
Symbol HS0ZRA-Y 1788476761 2m MMDVM Voice (C4FM) 146.21250MHz +0.0000MHz, APRS for YSFGateway Map
Symbol ZL3AF 1788476761 Ashburton BR-01 FM 438.900MHz 67Hz -5MHz Map
Symbol SR1WXW 1788476761 DIGI W1, SPn U=13.5V, T=17.1C, Sp1n@wp.pl Map
Symbol NorthRyde 1788476761 eMB64 Map
Symbol 2E0FKC-10 1788476761 LoRa APRS Map
Symbol 1298.60FM 1788476761 1298.600 MHz -28 MHz E32 Wingst1~ Map
Symbol LW5EVI 1788476761 LW5EVI Osvaldo Map
Symbol KYIV-1 1788476761 Free radio repeater 446.225/434.850 T:88.5 Temp=24 http://repiter.kda.kiev.ua Map
Symbol LX9EPF-B 1788476761 440 Voice 432.95000MHz +0.0000MHz Map
Symbol W1XM 1788476761 MIT APRS iGate & Local Fill-in Cambridge, MA Map
Symbol PU2STT-D 1788476761 Powered by WPSD (https://wpsd.radio) Map
Symbol KI7NBQ-13 1788476761 145.070MHz Winlink VARA FM Wide Gateway Map
Symbol AF0AD-D 1788476761 70cm MMDVM Voice (DMR) 438.50000MHz -5.0000MHz, APRS for DMRGateway Map
Symbol N8MDG-1 1788476761 Graywolf/0.14.12 Map
Symbol DO2DE-10 1788476761 LoRa APRS iGATE Map
Symbol MMSI-3160 1788476761 MMSI-3160121 MMSI:3160121 Map
Symbol M0GQS 1788476761 WX3in1Plus2.0 U=14.1V, T=37.2C Map
Symbol W5RHS-D 1788476761 70cm MMDVM Voice (DMR) 434.00000MHz +0.0000MHz, APRS for DMRGateway Map
Symbol IRLP-3514 1788476761 146440s100C EXP0082 Map
Symbol KD2UWR-10 1788476761 LoRa APRS TX/RX iGate Map